Time;durP1;ratioP1;P1;durP2;ratioP2;P2;SDS_P1;SDS_P2;PMS_P1;PMS_P2;Temp;Humidity;BMP_temperature;BMP_pressure;BME280_temperature;BME280_humidity;BME280_pressure;Samples;Min_cycle;Max_cycle;Signal;HPM_P1;HPM_P2
2023/07/31 00:01:52;;;;;;;75.28;71.38;;;;;;;21.59;52.36;100959.69;4988246;28;20030;-81
2023/07/31 00:04:18;;;;;;;83.78;79.63;;;;;;;21.58;52.16;100954.50;4985499;28;20034;-82
2023/07/31 00:06:43;;;;;;;76.75;72.57;;;;;;;21.56;52.00;100963.06;5003066;28;20082;-82
2023/07/31 00:09:08;;;;;;;71.40;67.38;;;;;;;21.55;52.38;100964.19;4979189;28;20050;-82
2023/07/31 00:11:34;;;;;;;74.28;70.03;;;;;;;21.54;52.45;100962.56;4991139;28;20051;-81
2023/07/31 00:13:59;;;;;;;73.80;70.30;;;;;;;21.54;52.05;100959.00;4994086;28;20034;-81
2023/07/31 00:16:25;;;;;;;75.85;72.00;;;;;;;21.52;52.28;100961.22;4988854;28;20039;-81
2023/07/31 00:18:50;;;;;;;71.22;67.47;;;;;;;21.51;52.24;100962.38;4987397;28;20030;-80
2023/07/31 00:21:15;;;;;;;72.68;68.88;;;;;;;21.50;52.55;100953.31;5003411;28;20423;-82
2023/07/31 00:23:41;;;;;;;72.65;68.80;;;;;;;21.49;52.60;100953.63;4997155;28;20038;-82
2023/07/31 00:26:06;;;;;;;72.40;68.80;;;;;;;21.46;52.36;100944.06;4987194;28;20475;-81
2023/07/31 00:28:31;;;;;;;80.90;76.20;;;;;;;21.47;52.28;100944.88;5004626;28;20038;-83
2023/07/31 00:30:57;;;;;;;75.60;71.45;;;;;;;21.46;52.68;100955.06;4978373;28;20049;-82
2023/07/31 00:33:22;;;;;;;75.80;71.35;;;;;;;21.46;52.56;100946.00;4985377;28;20046;-82
2023/07/31 00:35:48;;;;;;;73.80;69.90;;;;;;;21.43;52.31;100941.94;5002103;28;20107;-82
2023/07/31 00:38:13;;;;;;;72.80;68.80;;;;;;;21.43;52.50;100938.38;4993563;28;20065;-83
2023/07/31 00:40:39;;;;;;;73.78;69.65;;;;;;;21.42;52.51;100948.56;4991611;28;20097;-82
2023/07/31 00:43:04;;;;;;;74.20;70.15;;;;;;;21.41;52.36;100946.94;4990791;28;20130;-83
2023/07/31 00:45:30;;;;;;;74.47;70.43;;;;;;;21.40;52.29;100945.31;4998735;28;20430;-82
2023/07/31 00:47:57;;;;;;;71.65;68.25;;;;;;;21.39;52.17;100947.25;5002134;28;20435;-82
2023/07/31 00:50:24;;;;;;;73.70;69.68;;;;;;;21.38;52.68;100948.38;5003222;28;20061;-82
2023/07/31 00:52:49;;;;;;;71.88;68.18;;;;;;;21.37;52.18;100945.91;4996966;28;20483;-83
2023/07/31 00:55:15;;;;;;;76.60;72.30;;;;;;;21.37;52.31;100940.41;5000427;28;20038;-82
2023/07/31 00:57:41;;;;;;;75.82;71.72;;;;;;;21.35;52.74;100929.72;5001384;28;20046;-83
2023/07/31 01:00:08;;;;;;;71.95;68.22;;;;;;;21.35;52.56;100935.22;4979262;28;20031;-81
2023/07/31 01:02:33;;;;;;;72.82;68.95;;;;;;;21.34;52.59;100930.03;4992316;28;20088;-81
2023/07/31 01:05:00;;;;;;;71.88;67.85;;;;;;;21.33;52.15;100933.91;4999348;28;20118;-83
2023/07/31 01:07:42;;;;;;;74.05;69.93;;;;;;;21.32;52.58;100932.28;4988677;28;20055;-82
2023/07/31 01:10:30;;;;;;;69.72;66.07;;;;;;;21.31;52.80;100934.22;4988739;28;20026;-86
2023/07/31 01:12:57;;;;;;;73.72;69.47;;;;;;;21.31;52.32;100931.47;4981741;28;20062;-85
2023/07/31 01:15:23;;;;;;;73.85;69.90;;;;;;;21.29;52.80;100928.25;4985822;28;20089;-83
2023/07/31 01:17:48;;;;;;;69.28;65.97;;;;;;;21.28;52.69;100932.09;4993266;28;20079;-85
2023/07/31 01:20:18;;;;;;;72.15;68.47;;;;;;;21.28;52.41;100925.78;5000396;28;20460;-81
2023/07/31 01:23:02;;;;;;;72.57;68.88;;;;;;;21.28;52.46;100928.53;4981888;28;20038;-80
2023/07/31 01:25:53;;;;;;;70.90;67.20;;;;;;;21.27;52.38;100926.88;4979533;28;20034;-82
2023/07/31 01:28:40;;;;;;;71.40;67.60;;;;;;;21.25;52.65;100918.16;4980048;28;20027;-81
2023/07/31 01:31:07;;;;;;;68.60;65.30;;;;;;;21.23;52.55;100928.66;4983586;28;20136;-79
2023/07/31 01:33:34;;;;;;;72.50;68.90;;;;;;;21.23;52.48;100920.41;4981399;28;20043;-82
2023/07/31 01:36:00;;;;;;;70.85;67.20;;;;;;;21.21;52.86;100928.16;4974707;28;20115;-83
2023/07/31 01:38:26;;;;;;;73.18;69.28;;;;;;;21.20;52.38;100932.84;4979073;28;20467;-80
2023/07/31 01:40:53;;;;;;;74.53;70.38;;;;;;;21.20;52.89;100926.53;4988683;28;20027;-80
2023/07/31 01:43:18;;;;;;;72.75;69.15;;;;;;;21.20;52.72;100929.28;4992877;28;20041;-80
2023/07/31 01:45:44;;;;;;;70.93;67.30;;;;;;;21.18;52.50;100937.81;4983411;28;20038;-80
2023/07/31 01:48:09;;;;;;;72.95;69.25;;;;;;;21.17;52.78;100927.97;4985543;28;20463;-83
2023/07/31 01:50:34;;;;;;;69.47;66.05;;;;;;;21.15;52.69;100925.50;4982160;28;20097;-81
2023/07/31 01:53:00;;;;;;;75.38;71.05;;;;;;;21.15;52.74;100914.53;4980899;28;20133;-83
2023/07/31 01:55:25;;;;;;;73.55;69.35;;;;;;;21.14;52.80;100909.31;4983839;28;20038;-82
2023/07/31 01:57:52;;;;;;;72.63;68.32;;;;;;;21.13;52.70;100916.75;4982749;28;20034;-81
2023/07/31 02:00:18;;;;;;;70.18;66.50;;;;;;;21.12;52.52;100906.91;4983289;28;20035;-82
2023/07/31 02:02:43;;;;;;;72.10;68.53;;;;;;;21.11;52.87;100894.28;4984027;28;20100;-82
2023/07/31 02:05:09;;;;;;;67.57;63.78;;;;;;;21.10;52.81;100897.34;4984502;28;20041;-80
2023/07/31 02:07:34;;;;;;;70.70;66.70;;;;;;;21.10;52.48;100894.59;4982262;28;20395;-81
2023/07/31 02:09:59;;;;;;;70.07;66.22;;;;;;;21.08;52.60;100880.38;4991108;28;20596;-81
2023/07/31 02:12:25;;;;;;;72.70;68.82;;;;;;;21.08;52.47;100889.41;4979371;28;20039;-81
2023/07/31 02:14:50;;;;;;;69.93;66.43;;;;;;;21.07;52.53;100887.81;4986995;28;20368;-83
2023/07/31 02:17:16;;;;;;;72.57;68.57;;;;;;;21.06;53.03;100883.41;4978294;28;20058;-84
2023/07/31 02:19:41;;;;;;;70.70;66.88;;;;;;;21.06;52.90;100875.19;4984240;28;20034;-84
2023/07/31 02:22:06;;;;;;;71.55;67.32;;;;;;;21.05;52.94;100868.06;4982815;28;20066;-79
2023/07/31 02:24:32;;;;;;;69.65;66.03;;;;;;;21.05;52.85;100870.81;4999717;28;20456;-80
2023/07/31 02:26:57;;;;;;;71.28;67.40;;;;;;;21.03;52.58;100870.31;4981276;28;20483;-80
2023/07/31 02:29:22;;;;;;;68.38;65.13;;;;;;;21.03;52.45;100866.75;4981613;28;20093;-81
2023/07/31 02:31:48;;;;;;;71.95;67.90;;;;;;;21.02;52.99;100863.19;4986070;28;20035;-81
2023/07/31 02:34:13;;;;;;;71.00;66.57;;;;;;;21.01;52.47;100866.25;4981905;28;20394;-82
2023/07/31 02:36:39;;;;;;;69.45;65.70;;;;;;;21.00;52.91;100870.94;4985137;28;20035;-82
2023/07/31 02:39:04;;;;;;;72.03;67.97;;;;;;;20.99;52.62;100872.06;4978879;28;20046;-81
2023/07/31 02:41:30;;;;;;;71.53;67.90;;;;;;;20.98;52.74;100859.44;4978755;28;20446;-81
2023/07/31 02:43:55;;;;;;;69.90;66.00;;;;;;;20.97;52.80;100860.56;4982060;28;20039;-80
2023/07/31 02:46:24;;;;;;;70.05;66.10;;;;;;;20.98;53.00;100859.44;4983522;28;20085;-83
2023/07/31 02:48:49;;;;;;;70.75;66.82;;;;;;;20.96;52.75;100865.25;4986986;28;20113;-82
2023/07/31 02:51:15;;;;;;;70.80;66.50;;;;;;;20.96;52.88;100861.69;4985459;28;20122;-83
2023/07/31 02:53:40;;;;;;;72.35;68.38;;;;;;;20.95;52.85;100862.81;4984595;28;20042;-81
2023/07/31 02:56:05;;;;;;;73.20;69.00;;;;;;;20.93;52.53;100860.38;4979585;28;20058;-82
2023/07/31 02:58:31;;;;;;;71.07;67.22;;;;;;;20.93;52.53;100857.63;4981837;28;20399;-81
2023/07/31 03:00:58;;;;;;;73.93;69.22;;;;;;;20.92;52.93;100858.75;4983921;28;20463;-81
2023/07/31 03:03:24;;;;;;;70.03;66.40;;;;;;;20.92;53.03;100860.69;4982868;28;20033;-81
2023/07/31 03:05:49;;;;;;;65.88;62.65;;;;;;;20.91;52.75;100859.84;4983003;28;20034;-81
2023/07/31 03:08:15;;;;;;;71.93;67.97;;;;;;;20.90;53.01;100858.25;4976436;28;20113;-81
2023/07/31 03:10:40;;;;;;;71.03;67.20;;;;;;;20.89;52.73;100856.63;4986354;28;20050;-81
2023/07/31 03:13:06;;;;;;;72.03;68.10;;;;;;;20.88;53.02;100857.75;4984278;28;20110;-80
2023/07/31 03:15:31;;;;;;;68.03;63.95;;;;;;;20.87;52.73;100856.13;4982853;28;20471;-84
2023/07/31 03:17:57;;;;;;;69.90;66.05;;;;;;;20.88;53.10;100859.69;4980026;28;20078;-84
2023/07/31 03:20:22;;;;;;;71.32;67.18;;;;;;;20.87;53.02;100847.09;4979478;28;20031;-82
2023/07/31 03:22:47;;;;;;;71.13;66.95;;;;;;;20.86;52.72;100850.94;4987411;28;20414;-82
2023/07/31 03:25:14;;;;;;;70.32;66.38;;;;;;;20.85;52.84;100833.66;4982324;28;20489;-81
2023/07/31 03:27:39;;;;;;;70.45;66.75;;;;;;;20.84;52.49;100837.53;4985641;28;20035;-81
2023/07/31 03:30:06;;;;;;;72.13;68.03;;;;;;;20.83;53.03;100833.16;4990196;28;20088;-81
2023/07/31 03:32:31;;;;;;;70.03;66.32;;;;;;;20.83;52.56;100829.59;4990766;28;20049;-80
2023/07/31 03:34:57;;;;;;;71.00;67.25;;;;;;;20.82;52.59;100825.25;4984719;28;20121;-80
2023/07/31 03:37:23;;;;;;;68.45;64.72;;;;;;;20.82;52.53;100825.25;4988848;28;20046;-82
2023/07/31 03:39:48;;;;;;;75.10;71.13;;;;;;;20.81;53.11;100826.34;4981604;28;20042;-80
2023/07/31 03:42:14;;;;;;;66.70;63.30;;;;;;;20.81;52.94;100818.09;4992464;28;20045;-80
2023/07/31 03:44:40;;;;;;;68.75;65.25;;;;;;;20.80;52.63;100819.25;4991081;28;20494;-80
2023/07/31 03:47:05;;;;;;;69.32;65.40;;;;;;;20.79;53.01;100821.19;4986017;28;20042;-81
2023/07/31 03:49:31;;;;;;;68.13;64.70;;;;;;;20.78;52.80;100816.78;5004899;28;20045;-81
2023/07/31 03:51:57;;;;;;;68.65;64.55;;;;;;;20.78;52.79;100807.75;5000107;28;20045;-81
2023/07/31 03:54:22;;;;;;;68.88;64.90;;;;;;;20.77;52.74;100809.69;4984564;28;20058;-80
2023/07/31 03:56:47;;;;;;;68.45;64.95;;;;;;;20.76;52.61;100810.78;4989757;28;20035;-81
2023/07/31 03:59:13;;;;;;;68.07;64.68;;;;;;;20.75;52.44;100799.00;4987121;28;20466;-81
2023/07/31 04:01:38;;;;;;;68.82;65.03;;;;;;;20.74;52.73;100797.41;4988719;28;20117;-80
2023/07/31 04:04:04;;;;;;;67.82;64.35;;;;;;;20.74;52.43;100789.16;4992848;28;20057;-81
2023/07/31 04:06:29;;;;;;;71.13;67.40;;;;;;;20.73;52.93;100795.75;4986429;28;20310;-81
2023/07/31 04:08:54;;;;;;;68.50;64.85;;;;;;;20.72;52.89;100785.91;4981928;28;20067;-81
2023/07/31 04:11:20;;;;;;;65.90;62.50;;;;;;;20.72;52.47;100799.63;4988138;28;20065;-81
2023/07/31 04:13:45;;;;;;;70.03;66.38;;;;;;;20.72;52.79;100787.84;4985694;28;20152;-84
2023/07/31 04:16:11;;;;;;;68.93;65.35;;;;;;;20.71;52.60;100794.44;4984298;28;20794;-80
2023/07/31 04:18:37;;;;;;;65.85;62.50;;;;;;;20.70;52.93;100790.88;4986310;28;20089;-80
2023/07/31 04:21:03;;;;;;;70.05;66.18;;;;;;;20.70;52.87;100787.34;4981447;28;20101;-81
2023/07/31 04:23:28;;;;;;;68.90;65.43;;;;;;;20.68;53.09;100776.66;4980443;28;20125;-81
2023/07/31 04:25:54;;;;;;;69.20;65.25;;;;;;;20.69;52.60;100775.56;4987422;28;20437;-80
2023/07/31 04:28:19;;;;;;;70.88;66.70;;;;;;;20.68;52.54;100776.66;4985286;28;20042;-81
2023/07/31 04:30:44;;;;;;;69.45;65.30;;;;;;;20.67;53.03;100775.03;4979530;28;20038;-81
2023/07/31 04:33:10;;;;;;;68.68;64.78;;;;;;;20.67;52.74;100772.31;4986401;28;20045;-80
2023/07/31 04:35:35;;;;;;;68.32;64.78;;;;;;;20.66;53.08;100767.94;4985477;28;20053;-81
2023/07/31 04:38:01;;;;;;;69.47;65.78;;;;;;;20.66;52.58;100765.19;4989053;28;20533;-81
2023/07/31 04:40:26;;;;;;;67.55;64.22;;;;;;;20.65;52.62;100763.56;4984665;28;20053;-83
2023/07/31 04:42:52;;;;;;;67.82;64.32;;;;;;;20.65;52.81;100760.81;4989467;28;20034;-81
2023/07/31 04:45:17;;;;;;;70.65;66.97;;;;;;;20.64;53.09;100753.72;4987804;28;20451;-85
2023/07/31 04:47:42;;;;;;;68.50;64.90;;;;;;;20.65;52.71;100751.78;4986101;28;20038;-80
2023/07/31 04:50:08;;;;;;;67.72;64.13;;;;;;;20.63;52.72;100749.34;4982612;28;20034;-81
2023/07/31 04:52:33;;;;;;;69.22;65.43;;;;;;;20.63;52.93;100743.84;4982262;28;20057;-80
2023/07/31 04:54:59;;;;;;;67.13;63.75;;;;;;;20.63;53.07;100738.34;4989622;28;20038;-79
2023/07/31 04:57:24;;;;;;;70.20;66.88;;;;;;;20.62;52.83;100739.50;4987700;28;20695;-80
2023/07/31 04:59:50;;;;;;;68.72;64.90;;;;;;;20.62;52.93;100727.69;4983109;28;20050;-82
2023/07/31 05:02:15;;;;;;;67.40;63.70;;;;;;;20.61;53.13;100732.34;4988492;28;20345;-84
2023/07/31 05:04:41;;;;;;;66.45;62.95;;;;;;;20.61;53.09;100731.56;4989374;28;20039;-81
2023/07/31 05:07:06;;;;;;;67.38;63.88;;;;;;;20.60;52.74;100725.25;4986333;28;20074;-82
2023/07/31 05:09:31;;;;;;;68.10;64.15;;;;;;;20.60;52.86;100724.47;4986055;28;20264;-83
2023/07/31 05:11:57;;;;;;;68.07;64.28;;;;;;;20.60;52.93;100724.47;4987405;28;20045;-82
2023/07/31 05:14:22;;;;;;;65.47;61.97;;;;;;;20.61;53.18;100726.06;4984448;28;20375;-86
2023/07/31 05:16:48;;;;;;;67.07;63.55;;;;;;;20.60;52.76;100727.19;4985922;28;20038;-82
2023/07/31 05:19:14;;;;;;;69.63;65.88;;;;;;;20.59;52.93;100734.63;4984346;28;20471;-85
2023/07/31 05:21:39;;;;;;;68.75;65.55;;;;;;;20.59;53.10;100733.78;4966523;28;20476;-83
2023/07/31 05:24:05;;;;;;;66.57;63.20;;;;;;;20.57;53.21;100734.13;4983095;28;20034;-82
2023/07/31 05:26:30;;;;;;;68.15;64.50;;;;;;;20.57;52.93;100728.63;4986053;28;20490;-83
2023/07/31 05:28:56;;;;;;;67.90;64.18;;;;;;;20.58;52.83;100724.75;5002222;28;20044;-84
2023/07/31 05:31:22;;;;;;;70.53;67.00;;;;;;;20.56;53.21;100724.25;4980693;28;20455;-83
2023/07/31 05:33:49;;;;;;;67.93;64.45;;;;;;;20.56;52.92;100724.25;4983545;28;20053;-83
2023/07/31 05:36:15;;;;;;;66.68;63.38;;;;;;;20.56;53.14;100727.00;4992440;28;20038;-83
2023/07/31 05:38:42;;;;;;;68.45;65.05;;;;;;;20.55;53.19;100708.91;4978507;28;20478;-83
2023/07/31 05:41:07;;;;;;;64.80;61.40;;;;;;;20.55;53.03;100705.38;4988048;28;20026;-83
2023/07/31 05:43:32;;;;;;;65.53;62.33;;;;;;;20.55;53.32;100705.38;4991929;28;20045;-82
2023/07/31 05:45:58;;;;;;;67.82;64.43;;;;;;;20.54;53.03;100710.03;4992312;28;20031;-81
2023/07/31 05:48:23;;;;;;;65.15;61.72;;;;;;;20.55;53.51;100710.84;4988466;28;20042;-83
2023/07/31 05:50:48;;;;;;;67.90;64.43;;;;;;;20.53;53.46;100697.41;4979802;28;20118;-84
2023/07/31 05:53:14;;;;;;;68.60;64.70;;;;;;;20.52;53.06;100696.59;4988628;28;20046;-85
2023/07/31 05:55:40;;;;;;;64.13;61.03;;;;;;;20.51;53.65;100708.72;4974939;28;20062;-83
2023/07/31 05:58:05;;;;;;;64.35;61.15;;;;;;;20.51;53.24;100702.38;4989907;28;20497;-85
2023/07/31 06:00:30;;;;;;;66.63;63.33;;;;;;;20.51;53.29;100702.38;5007331;28;20409;-82
2023/07/31 06:02:56;;;;;;;66.57;63.25;;;;;;;20.50;53.20;100693.34;5005988;28;20046;-83
2023/07/31 06:05:21;;;;;;;66.35;63.28;;;;;;;20.50;53.44;100692.53;4989069;28;20058;-82
2023/07/31 06:07:47;;;;;;;64.63;61.60;;;;;;;20.50;53.35;100687.06;4983616;28;20054;-83
2023/07/31 06:10:13;;;;;;;65.35;62.30;;;;;;;20.49;53.19;100688.19;4983996;28;20097;-80
2023/07/31 06:12:38;;;;;;;65.20;62.20;;;;;;;20.48;53.33;100681.88;4996057;28;20038;-83
2023/07/31 06:15:04;;;;;;;65.93;62.42;;;;;;;20.48;53.27;100683.81;4987478;28;20571;-82
2023/07/31 06:17:30;;;;;;;63.10;60.17;;;;;;;20.48;53.46;100681.06;4983133;28;20447;-81
2023/07/31 06:19:56;;;;;;;66.63;62.95;;;;;;;20.48;53.23;100692.03;5005115;28;20169;-81
2023/07/31 06:22:22;;;;;;;62.97;60.00;;;;;;;20.47;53.60;100684.94;4992508;28;20121;-81
2023/07/31 06:24:47;;;;;;;62.78;59.85;;;;;;;20.46;53.58;100673.16;4992471;28;20110;-79
2023/07/31 06:27:12;;;;;;;63.47;60.28;;;;;;;20.46;53.80;100684.13;4992393;28;20034;-82
2023/07/31 06:29:38;;;;;;;61.97;59.08;;;;;;;20.46;53.53;100684.13;4990323;28;20113;-80
2023/07/31 06:32:04;;;;;;;65.15;62.03;;;;;;;20.46;53.70;100680.56;4989372;28;20455;-85
2023/07/31 06:34:29;;;;;;;64.93;61.72;;;;;;;20.47;53.95;100676.72;4989203;28;20049;-81
2023/07/31 06:36:56;;;;;;;65.80;62.60;;;;;;;20.46;53.81;100669.56;4989573;28;20376;-84
2023/07/31 06:39:21;;;;;;;64.47;61.38;;;;;;;20.45;53.57;100668.78;4976087;28;20045;-82
2023/07/31 06:41:46;;;;;;;66.20;63.00;;;;;;;20.45;53.95;100663.28;4981165;28;20035;-82
2023/07/31 06:44:12;;;;;;;65.00;61.90;;;;;;;20.44;53.56;100664.41;4985015;28;20034;-77
2023/07/31 06:46:37;;;;;;;70.28;66.97;;;;;;;20.44;54.02;100663.63;4986212;28;20383;-79
2023/07/31 06:49:03;;;;;;;67.35;63.80;;;;;;;20.44;53.83;100652.63;4985318;28;20104;-82
2023/07/31 06:51:28;;;;;;;64.00;60.83;;;;;;;20.44;53.95;100656.19;4988951;28;20380;-82
2023/07/31 06:53:54;;;;;;;65.22;62.15;;;;;;;20.43;53.73;100654.56;4987240;28;20053;-85
2023/07/31 06:56:20;;;;;;;65.63;62.35;;;;;;;20.44;53.59;100655.38;4984649;28;20059;-82
2023/07/31 06:58:46;;;;;;;68.25;64.75;;;;;;;20.44;54.13;100655.38;4988999;28;20022;-87
2023/07/31 07:01:11;;;;;;;65.78;62.78;;;;;;;20.43;53.85;100645.50;4985756;28;20038;-85
2023/07/31 07:03:37;;;;;;;64.25;61.25;;;;;;;20.42;54.03;100636.47;4982726;28;20470;-86
2023/07/31 07:06:02;;;;;;;66.78;63.58;;;;;;;20.42;53.70;100638.41;4984239;28;20038;-83
2023/07/31 07:08:27;;;;;;;66.35;63.22;;;;;;;20.43;54.06;100642.78;4978043;28;20050;-84
2023/07/31 07:10:53;;;;;;;67.63;64.20;;;;;;;20.42;53.91;100641.16;4978832;28;20053;-84
2023/07/31 07:13:19;;;;;;;68.88;65.57;;;;;;;20.41;54.24;100645.84;4983167;28;20084;-84
2023/07/31 07:15:49;;;;;;;66.30;62.42;;;;;;;20.43;54.34;100651.00;4986002;28;20463;-83
2023/07/31 07:18:14;;;;;;;65.80;62.75;;;;;;;20.43;54.25;100643.56;4987099;28;20092;-81
2023/07/31 07:20:40;;;;;;;65.55;62.45;;;;;;;20.43;54.25;100634.53;4980807;28;20038;-85
2023/07/31 07:23:06;;;;;;;69.47;66.07;;;;;;;20.42;54.04;100630.19;4966243;28;20042;-84
2023/07/31 07:25:31;;;;;;;65.22;61.90;;;;;;;20.42;54.14;100641.97;4983773;28;20486;-80
2023/07/31 07:27:56;;;;;;;66.97;63.47;;;;;;;20.43;54.53;100637.28;4985914;28;20041;-80
2023/07/31 07:30:24;;;;;;;64.68;61.65;;;;;;;20.42;54.53;100647.47;4984397;28;20182;-81
2023/07/31 07:32:49;;;;;;;66.28;63.17;;;;;;;20.43;54.70;100645.50;4986190;28;20042;-81
2023/07/31 07:35:15;;;;;;;67.80;64.40;;;;;;;20.42;54.73;100649.41;4987199;28;20042;-85
2023/07/31 07:37:40;;;;;;;65.53;62.30;;;;;;;20.42;54.69;100641.16;4986023;28;20393;-82
2023/07/31 07:40:06;;;;;;;68.78;65.30;;;;;;;20.42;54.42;100643.91;4984584;28;20030;-84
2023/07/31 07:42:32;;;;;;;66.22;63.05;;;;;;;20.42;54.67;100644.72;4949571;28;20399;-82
2023/07/31 07:44:58;;;;;;;67.60;64.28;;;;;;;20.41;54.59;100637.63;4986107;28;20069;-83
2023/07/31 07:47:23;;;;;;;66.72;63.63;;;;;;;20.42;54.65;100641.97;4985859;28;20050;-83
2023/07/31 07:49:48;;;;;;;66.30;62.83;;;;;;;20.42;54.32;100644.72;5002444;28;20038;-81
2023/07/31 07:52:14;;;;;;;68.97;65.45;;;;;;;20.43;54.12;100643.56;4982643;28;20394;-82
2023/07/31 07:54:39;;;;;;;64.82;61.72;;;;;;;20.43;54.59;100640.03;4986887;28;20045;-84
2023/07/31 07:57:04;;;;;;;68.50;65.00;;;;;;;20.42;54.44;100644.72;4988636;28;20084;-83
2023/07/31 07:59:30;;;;;;;66.47;63.08;;;;;;;20.43;54.13;100645.50;4996338;28;20046;-82
2023/07/31 08:01:57;;;;;;;64.65;61.55;;;;;;;20.43;54.67;100634.53;4984472;28;20502;-81
2023/07/31 08:04:22;;;;;;;64.05;61.00;;;;;;;20.42;54.70;100641.97;4985372;28;20058;-82
2023/07/31 08:06:48;;;;;;;66.57;63.25;;;;;;;20.43;54.50;100631.78;4987717;28;20125;-82
2023/07/31 08:09:13;;;;;;;68.13;64.68;;;;;;;20.43;54.56;100631.78;4981843;28;20557;-83
2023/07/31 08:11:38;;;;;;;65.72;62.63;;;;;;;20.43;54.90;100642.78;4985662;28;20388;-83
2023/07/31 08:14:04;;;;;;;67.60;63.65;;;;;;;20.44;54.86;100636.19;4984702;28;20383;-82
2023/07/31 08:16:29;;;;;;;65.68;62.38;;;;;;;20.43;54.99;100632.59;4985004;28;20042;-81
2023/07/31 08:18:55;;;;;;;67.15;63.60;;;;;;;20.44;54.51;100636.19;4984430;28;20038;-82
2023/07/31 08:21:21;;;;;;;66.53;62.97;;;;;;;20.43;54.69;100632.59;4985402;28;20065;-83
2023/07/31 08:23:47;;;;;;;65.10;61.95;;;;;;;20.45;55.00;100635.03;4985597;28;20488;-82
2023/07/31 08:26:17;;;;;;;68.75;65.35;;;;;;;20.44;54.93;100622.47;4983435;28;20110;-84
2023/07/31 08:28:42;;;;;;;68.80;65.30;;;;;;;20.44;54.92;100628.75;4987393;28;20038;-83
2023/07/31 08:31:07;;;;;;;68.25;64.85;;;;;;;20.44;54.64;100628.75;4992463;28;20042;-83
2023/07/31 08:33:33;;;;;;;67.10;63.90;;;;;;;20.46;54.85;100625.69;4989334;28;20122;-83
2023/07/31 08:35:59;;;;;;;65.25;62.05;;;;;;;20.46;54.67;100628.44;4989155;28;20038;-85
2023/07/31 08:38:26;;;;;;;65.93;62.70;;;;;;;20.46;54.63;100620.19;4989258;28;20125;-82
2023/07/31 08:40:51;;;;;;;67.25;63.85;;;;;;;20.46;55.07;100620.19;4988277;28;20066;-80
2023/07/31 08:43:18;;;;;;;67.63;64.13;;;;;;;20.46;54.42;100621.03;4978795;28;20472;-81
2023/07/31 08:45:44;;;;;;;66.43;63.25;;;;;;;20.48;54.49;100628.94;4983827;28;20045;-83
2023/07/31 08:48:11;;;;;;;67.47;63.97;;;;;;;20.47;54.71;100619.91;4987102;28;20046;-81
2023/07/31 08:50:38;;;;;;;65.88;62.67;;;;;;;20.48;54.96;100626.19;4986466;28;20043;-82
2023/07/31 08:53:03;;;;;;;68.25;64.70;;;;;;;20.46;55.13;100618.28;4983617;28;20026;-83
2023/07/31 08:55:29;;;;;;;65.95;62.65;;;;;;;20.48;54.83;100617.94;4991833;28;20035;-83
2023/07/31 08:57:56;;;;;;;70.25;66.82;;;;;;;20.48;54.88;100620.69;4990568;28;20117;-83
2023/07/31 09:00:24;;;;;;;68.38;64.50;;;;;;;20.48;54.92;100617.94;4991193;28;20096;-84
2023/07/31 09:03:16;;;;;;;68.63;65.25;;;;;;;20.49;54.69;100622.34;4985545;28;20061;-82
2023/07/31 09:05:44;;;;;;;64.65;61.47;;;;;;;20.49;54.55;100619.59;4983436;28;20114;-84
2023/07/31 09:08:12;;;;;;;68.53;64.88;;;;;;;20.48;54.71;100621.50;4988503;28;20479;-79
2023/07/31 09:10:49;;;;;;;65.43;62.28;;;;;;;20.49;54.62;100612.16;4986210;28;20042;-80
2023/07/31 09:13:15;;;;;;;68.00;64.63;;;;;;;20.48;55.07;100612.47;4981339;28;20410;-84
2023/07/31 09:15:43;;;;;;;65.68;62.55;;;;;;;20.50;54.75;100611.03;4987523;28;20033;-82
2023/07/31 09:18:09;;;;;;;67.28;63.90;;;;;;;20.49;54.78;100614.91;5003858;28;20140;-83
2023/07/31 09:20:34;;;;;;;66.47;63.08;;;;;;;20.50;54.90;100599.25;4987409;28;20061;-82
2023/07/31 09:23:08;;;;;;;65.95;62.75;;;;;;;20.50;55.13;100615.72;4987549;28;20060;-81
2023/07/31 09:25:33;;;;;;;64.85;61.38;;;;;;;20.50;55.07;100612.97;4990063;28;20489;-80
2023/07/31 09:28:07;;;;;;;65.90;62.38;;;;;;;20.50;55.12;100602.81;4989570;28;20035;-71
2023/07/31 09:30:50;;;;;;;67.03;63.72;;;;;;;20.52;55.37;100603.31;4989941;28;20104;-81
2023/07/31 09:33:16;;;;;;;68.13;64.25;;;;;;;20.52;55.14;100608.00;4990350;28;20109;-82
2023/07/31 09:35:42;;;;;;;64.43;61.35;;;;;;;20.52;55.10;100603.31;4989613;28;20430;-84
2023/07/31 09:38:10;;;;;;;68.25;64.82;;;;;;;20.54;55.29;100603.00;4997532;28;20034;-83
2023/07/31 09:40:41;;;;;;;66.32;63.13;;;;;;;20.55;54.97;100601.09;4990654;28;20031;-84
2023/07/31 09:43:10;;;;;;;66.68;63.53;;;;;;;20.55;54.87;100601.09;4983208;28;20042;-82
2023/07/31 09:45:40;;;;;;;65.22;62.22;;;;;;;20.55;55.21;100603.84;4990340;28;20425;-81
2023/07/31 09:48:11;;;;;;;65.75;62.53;;;;;;;20.55;55.24;100593.66;4988804;28;20042;-82
2023/07/31 09:50:39;;;;;;;67.18;63.95;;;;;;;20.56;54.88;100588.97;4987646;28;20117;-79
2023/07/31 09:53:08;;;;;;;68.20;64.90;;;;;;;20.56;55.37;100584.28;4986589;28;20038;-82
2023/07/31 09:55:34;;;;;;;65.55;62.45;;;;;;;20.57;55.19;100588.69;4983644;28;20046;-80
2023/07/31 09:58:06;;;;;;;67.40;64.10;;;;;;;20.58;55.08;100586.75;4982062;28;20089;-79
2023/07/31 10:00:32;;;;;;;67.07;63.78;;;;;;;20.59;55.05;100585.59;5002279;28;20063;-78
2023/07/31 10:03:01;;;;;;;67.53;64.30;;;;;;;20.58;55.02;100590.28;4989824;28;20445;-80
2023/07/31 10:05:33;;;;;;;66.72;63.55;;;;;;;20.59;55.58;100589.19;4986101;28;20046;-79
2023/07/31 10:08:00;;;;;;;66.03;62.72;;;;;;;20.60;55.42;100576.25;4986190;28;20065;-82
2023/07/31 10:10:27;;;;;;;63.83;60.78;;;;;;;20.62;55.52;100576.75;4989565;28;20414;-80
2023/07/31 10:12:55;;;;;;;66.72;63.55;;;;;;;20.61;55.72;100573.19;4985453;28;20049;-81
2023/07/31 10:15:21;;;;;;;66.50;63.30;;;;;;;20.62;55.12;100571.28;4987588;28;20128;-79
2023/07/31 10:17:48;;;;;;;65.57;62.47;;;;;;;20.64;55.54;100577.28;4988997;28;20443;-80
2023/07/31 10:20:18;;;;;;;65.65;62.33;;;;;;;20.65;55.25;100581.63;4987011;28;20059;-78
2023/07/31 10:22:47;;;;;;;67.00;63.85;;;;;;;20.66;55.06;100580.47;4985526;28;20141;-80
2023/07/31 10:25:15;;;;;;;66.93;63.70;;;;;;;20.68;55.11;100580.97;4985756;28;20108;-81
2023/07/31 10:27:41;;;;;;;66.68;63.22;;;;;;;20.68;55.70;100590.03;4987456;28;20441;-80
2023/07/31 10:30:11;;;;;;;66.03;62.83;;;;;;;20.69;55.51;100586.16;4991040;28;20038;-82
2023/07/31 10:32:39;;;;;;;65.55;62.17;;;;;;;20.71;55.18;100594.91;4986996;28;20042;-80
2023/07/31 10:35:06;;;;;;;67.20;64.00;;;;;;;20.73;55.51;100591.81;4987203;28;20041;-81
2023/07/31 10:37:39;;;;;;;63.90;60.60;;;;;;;20.73;55.45;100595.38;4981419;28;20035;-80
2023/07/31 10:40:09;;;;;;;66.22;63.08;;;;;;;20.75;55.72;100608.78;4981940;28;20038;-81
2023/07/31 10:42:53;;;;;;;69.88;66.57;;;;;;;20.75;55.79;100598.63;4982959;28;20480;-79
2023/07/31 10:45:33;;;;;;;67.38;63.88;;;;;;;20.77;55.50;100597.50;4984285;28;20065;-80
2023/07/31 10:48:04;;;;;;;65.65;62.55;;;;;;;20.78;55.33;100590.88;4983466;28;20113;-81
2023/07/31 10:50:34;;;;;;;65.60;62.40;;;;;;;20.78;55.88;100588.94;4986449;28;20030;-81
2023/07/31 10:53:00;;;;;;;67.18;63.92;;;;;;;20.79;55.73;100587.00;4988211;28;20046;-79
2023/07/31 10:55:29;;;;;;;66.57;63.40;;;;;;;20.79;55.66;100582.34;4986869;28;20041;-79
2023/07/31 10:57:56;;;;;;;68.63;64.90;;;;;;;20.81;55.53;100580.06;4986084;28;20468;-82
2023/07/31 11:00:26;;;;;;;65.27;62.17;;;;;;;20.83;55.46;100579.78;4986529;28;20146;-80
2023/07/31 11:03:03;;;;;;;67.95;64.22;;;;;;;20.83;56.01;100575.09;4988452;28;20315;-78
2023/07/31 11:05:40;;;;;;;67.60;64.43;;;;;;;20.86;55.81;100581.88;4985439;28;20026;-80
2023/07/31 11:08:16;;;;;;;69.25;65.85;;;;;;;20.88;55.27;100576.88;4985801;28;20057;-82